sensor_id;sensor_type;location;lat;lon;timestamp;temperature;humidity
18888;DHT22;9576;47.792;9.628;2023-07-31T00:02:07;15.00;99.90
18888;DHT22;9576;47.792;9.628;2023-07-31T00:05:09;15.10;99.90
18888;DHT22;9576;47.792;9.628;2023-07-31T00:08:11;15.20;99.90
18888;DHT22;9576;47.792;9.628;2023-07-31T00:11:14;15.30;99.90
18888;DHT22;9576;47.792;9.628;2023-07-31T00:14:16;15.20;99.90
18888;DHT22;9576;47.792;9.628;2023-07-31T00:17:18;15.20;99.90
18888;DHT22;9576;47.792;9.628;2023-07-31T00:20:20;15.20;99.90
18888;DHT22;9576;47.792;9.628;2023-07-31T00:23:22;15.20;99.90
18888;DHT22;9576;47.792;9.628;2023-07-31T00:26:25;15.10;99.90
18888;DHT22;9576;47.792;9.628;2023-07-31T00:29:27;15.00;99.90
18888;DHT22;9576;47.792;9.628;2023-07-31T00:32:29;14.90;99.90
18888;DHT22;9576;47.792;9.628;2023-07-31T00:35:31;14.70;99.90
18888;DHT22;9576;47.792;9.628;2023-07-31T00:38:33;14.60;99.90
18888;DHT22;9576;47.792;9.628;2023-07-31T00:41:36;14.60;99.90
18888;DHT22;9576;47.792;9.628;2023-07-31T00:44:38;14.60;99.90
18888;DHT22;9576;47.792;9.628;2023-07-31T00:47:40;14.60;99.90
18888;DHT22;9576;47.792;9.628;2023-07-31T00:50:42;14.60;99.90
18888;DHT22;9576;47.792;9.628;2023-07-31T00:53:45;14.60;99.90
18888;DHT22;9576;47.792;9.628;2023-07-31T00:56:50;14.60;99.90
18888;DHT22;9576;47.792;9.628;2023-07-31T00:59:54;14.60;99.90
18888;DHT22;9576;47.792;9.628;2023-07-31T01:02:56;14.60;99.90
18888;DHT22;9576;47.792;9.628;2023-07-31T01:06:08;14.50;99.90
18888;DHT22;9576;47.792;9.628;2023-07-31T01:09:22;14.50;99.90
18888;DHT22;9576;47.792;9.628;2023-07-31T01:12:31;14.40;99.90
18888;DHT22;9576;47.792;9.628;2023-07-31T01:15:33;14.30;99.90
18888;DHT22;9576;47.792;9.628;2023-07-31T01:18:35;14.40;99.90
18888;DHT22;9576;47.792;9.628;2023-07-31T01:22:01;14.30;99.90
18888;DHT22;9576;47.792;9.628;2023-07-31T01:25:22;14.40;99.90
18888;DHT22;9576;47.792;9.628;2023-07-31T01:28:36;14.40;99.90
18888;DHT22;9576;47.792;9.628;2023-07-31T01:31:42;14.40;99.90
18888;DHT22;9576;47.792;9.628;2023-07-31T01:34:46;14.40;99.90
18888;DHT22;9576;47.792;9.628;2023-07-31T01:37:48;14.40;99.90
18888;DHT22;9576;47.792;9.628;2023-07-31T01:40:51;14.30;99.90
18888;DHT22;9576;47.792;9.628;2023-07-31T01:43:55;14.30;99.90
18888;DHT22;9576;47.792;9.628;2023-07-31T01:46:57;14.40;99.90
18888;DHT22;9576;47.792;9.628;2023-07-31T01:50:00;14.40;99.90
18888;DHT22;9576;47.792;9.628;2023-07-31T01:53:02;14.50;99.90
18888;DHT22;9576;47.792;9.628;2023-07-31T01:56:04;14.50;99.90
18888;DHT22;9576;47.792;9.628;2023-07-31T01:59:07;14.50;99.90
18888;DHT22;9576;47.792;9.628;2023-07-31T02:02:09;14.50;99.90
18888;DHT22;9576;47.792;9.628;2023-07-31T02:05:11;14.50;99.90
18888;DHT22;9576;47.792;9.628;2023-07-31T02:08:13;14.50;99.90
18888;DHT22;9576;47.792;9.628;2023-07-31T02:11:15;14.50;99.90
18888;DHT22;9576;47.792;9.628;2023-07-31T02:14:19;14.50;99.90
18888;DHT22;9576;47.792;9.628;2023-07-31T02:17:20;14.40;99.90
18888;DHT22;9576;47.792;9.628;2023-07-31T02:20:22;14.40;99.90
18888;DHT22;9576;47.792;9.628;2023-07-31T02:23:24;14.30;99.90
18888;DHT22;9576;47.792;9.628;2023-07-31T02:26:26;14.30;99.90
18888;DHT22;9576;47.792;9.628;2023-07-31T02:29:30;14.30;99.90
18888;DHT22;9576;47.792;9.628;2023-07-31T02:32:31;14.30;99.90
18888;DHT22;9576;47.792;9.628;2023-07-31T02:35:33;14.30;99.90
18888;DHT22;9576;47.792;9.628;2023-07-31T02:38:35;14.40;99.90
18888;DHT22;9576;47.792;9.628;2023-07-31T02:41:37;14.40;99.90
18888;DHT22;9576;47.792;9.628;2023-07-31T02:44:40;14.40;99.90
18888;DHT22;9576;47.792;9.628;2023-07-31T02:47:42;14.40;99.90
18888;DHT22;9576;47.792;9.628;2023-07-31T02:50:45;14.40;99.90
18888;DHT22;9576;47.792;9.628;2023-07-31T02:53:47;14.50;99.90
18888;DHT22;9576;47.792;9.628;2023-07-31T02:56:50;14.60;99.90
18888;DHT22;9576;47.792;9.628;2023-07-31T02:59:53;14.60;99.90
18888;DHT22;9576;47.792;9.628;2023-07-31T03:02:55;14.50;99.90
18888;DHT22;9576;47.792;9.628;2023-07-31T03:05:57;14.50;99.90
18888;DHT22;9576;47.792;9.628;2023-07-31T03:08:59;14.50;99.90
18888;DHT22;9576;47.792;9.628;2023-07-31T03:12:01;14.50;99.90
18888;DHT22;9576;47.792;9.628;2023-07-31T03:15:06;14.50;99.90
18888;DHT22;9576;47.792;9.628;2023-07-31T03:18:08;14.60;99.90
18888;DHT22;9576;47.792;9.628;2023-07-31T03:21:10;14.60;99.90
18888;DHT22;9576;47.792;9.628;2023-07-31T03:24:12;14.70;99.90
18888;DHT22;9576;47.792;9.628;2023-07-31T03:27:14;14.70;99.90
18888;DHT22;9576;47.792;9.628;2023-07-31T03:30:17;14.80;99.90
18888;DHT22;9576;47.792;9.628;2023-07-31T03:33:19;14.90;99.90
18888;DHT22;9576;47.792;9.628;2023-07-31T03:36:21;14.90;99.90
18888;DHT22;9576;47.792;9.628;2023-07-31T03:39:23;14.90;99.90
18888;DHT22;9576;47.792;9.628;2023-07-31T03:42:25;14.90;99.90
18888;DHT22;9576;47.792;9.628;2023-07-31T03:45:28;15.00;99.90
18888;DHT22;9576;47.792;9.628;2023-07-31T03:48:30;15.00;99.90
18888;DHT22;9576;47.792;9.628;2023-07-31T03:51:32;14.90;99.90
18888;DHT22;9576;47.792;9.628;2023-07-31T03:54:34;14.90;99.90
18888;DHT22;9576;47.792;9.628;2023-07-31T03:57:36;14.90;99.90
18888;DHT22;9576;47.792;9.628;2023-07-31T04:00:40;14.90;99.90
18888;DHT22;9576;47.792;9.628;2023-07-31T04:03:42;14.90;99.90
18888;DHT22;9576;47.792;9.628;2023-07-31T04:06:44;14.90;99.90
18888;DHT22;9576;47.792;9.628;2023-07-31T04:09:46;15.00;99.90
18888;DHT22;9576;47.792;9.628;2023-07-31T04:12:47;15.10;99.90
18888;DHT22;9576;47.792;9.628;2023-07-31T04:15:51;15.10;99.90
18888;DHT22;9576;47.792;9.628;2023-07-31T04:18:53;15.20;99.90
18888;DHT22;9576;47.792;9.628;2023-07-31T04:21:54;15.30;99.90
18888;DHT22;9576;47.792;9.628;2023-07-31T04:24:56;15.30;99.90
18888;DHT22;9576;47.792;9.628;2023-07-31T04:27:58;15.40;99.90
18888;DHT22;9576;47.792;9.628;2023-07-31T04:31:01;15.40;99.90
18888;DHT22;9576;47.792;9.628;2023-07-31T04:34:03;15.40;99.90
18888;DHT22;9576;47.792;9.628;2023-07-31T04:37:05;15.40;99.90
18888;DHT22;9576;47.792;9.628;2023-07-31T04:40:08;15.50;99.90
18888;DHT22;9576;47.792;9.628;2023-07-31T04:43:10;15.50;99.90
18888;DHT22;9576;47.792;9.628;2023-07-31T04:46:13;15.60;99.90
18888;DHT22;9576;47.792;9.628;2023-07-31T04:49:15;15.60;99.90
18888;DHT22;9576;47.792;9.628;2023-07-31T04:52:17;15.60;99.90
18888;DHT22;9576;47.792;9.628;2023-07-31T04:55:19;15.70;99.90
18888;DHT22;9576;47.792;9.628;2023-07-31T04:58:21;15.80;99.90
18888;DHT22;9576;47.792;9.628;2023-07-31T05:01:24;15.90;99.90
18888;DHT22;9576;47.792;9.628;2023-07-31T05:04:26;16.00;99.90
18888;DHT22;9576;47.792;9.628;2023-07-31T05:07:28;16.10;99.90
18888;DHT22;9576;47.792;9.628;2023-07-31T05:10:30;16.20;99.90
18888;DHT22;9576;47.792;9.628;2023-07-31T05:13:32;16.30;99.90
18888;DHT22;9576;47.792;9.628;2023-07-31T05:16:35;16.30;99.90
18888;DHT22;9576;47.792;9.628;2023-07-31T05:19:37;16.40;99.90
18888;DHT22;9576;47.792;9.628;2023-07-31T05:22:39;16.20;99.90
18888;DHT22;9576;47.792;9.628;2023-07-31T05:25:41;16.20;99.90
18888;DHT22;9576;47.792;9.628;2023-07-31T05:28:43;16.20;99.90
18888;DHT22;9576;47.792;9.628;2023-07-31T05:31:47;16.20;99.90
18888;DHT22;9576;47.792;9.628;2023-07-31T05:34:51;16.30;99.90
18888;DHT22;9576;47.792;9.628;2023-07-31T05:37:53;16.40;99.90
18888;DHT22;9576;47.792;9.628;2023-07-31T05:40:55;16.50;99.90
18888;DHT22;9576;47.792;9.628;2023-07-31T05:43:57;16.60;99.90
18888;DHT22;9576;47.792;9.628;2023-07-31T05:47:00;16.70;99.90
18888;DHT22;9576;47.792;9.628;2023-07-31T05:50:11;16.80;99.90
18888;DHT22;9576;47.792;9.628;2023-07-31T05:53:26;16.80;99.90
18888;DHT22;9576;47.792;9.628;2023-07-31T05:56:28;16.80;99.90
18888;DHT22;9576;47.792;9.628;2023-07-31T05:59:30;16.80;99.90
18888;DHT22;9576;47.792;9.628;2023-07-31T06:02:35;16.90;99.90
18888;DHT22;9576;47.792;9.628;2023-07-31T06:05:37;16.90;99.90
18888;DHT22;9576;47.792;9.628;2023-07-31T06:08:39;17.00;99.90
18888;DHT22;9576;47.792;9.628;2023-07-31T06:11:41;17.00;99.90
18888;DHT22;9576;47.792;9.628;2023-07-31T06:14:43;17.00;99.90
18888;DHT22;9576;47.792;9.628;2023-07-31T06:17:47;17.00;99.90
18888;DHT22;9576;47.792;9.628;2023-07-31T06:20:48;17.00;99.90
18888;DHT22;9576;47.792;9.628;2023-07-31T06:23:53;17.00;99.90
18888;DHT22;9576;47.792;9.628;2023-07-31T06:26:55;17.00;99.90
18888;DHT22;9576;47.792;9.628;2023-07-31T06:29:58;17.10;99.90
18888;DHT22;9576;47.792;9.628;2023-07-31T06:33:01;17.20;99.90
18888;DHT22;9576;47.792;9.628;2023-07-31T06:36:03;17.30;99.90
18888;DHT22;9576;47.792;9.628;2023-07-31T06:39:05;17.30;99.90
18888;DHT22;9576;47.792;9.628;2023-07-31T06:42:07;17.50;99.90
18888;DHT22;9576;47.792;9.628;2023-07-31T06:45:10;17.50;99.90
18888;DHT22;9576;47.792;9.628;2023-07-31T06:48:13;17.70;99.90
18888;DHT22;9576;47.792;9.628;2023-07-31T06:51:16;17.80;99.90
18888;DHT22;9576;47.792;9.628;2023-07-31T06:54:18;18.00;99.90
18888;DHT22;9576;47.792;9.628;2023-07-31T06:57:20;18.00;99.90
18888;DHT22;9576;47.792;9.628;2023-07-31T07:00:22;18.10;99.90
18888;DHT22;9576;47.792;9.628;2023-07-31T07:03:26;18.00;99.90
18888;DHT22;9576;47.792;9.628;2023-07-31T07:06:28;18.00;99.90
18888;DHT22;9576;47.792;9.628;2023-07-31T07:09:30;17.90;99.90
18888;DHT22;9576;47.792;9.628;2023-07-31T07:12:32;17.90;99.90
18888;DHT22;9576;47.792;9.628;2023-07-31T07:15:34;17.90;99.90
18888;DHT22;9576;47.792;9.628;2023-07-31T07:18:38;18.00;99.90
18888;DHT22;9576;47.792;9.628;2023-07-31T07:21:40;18.00;99.90
18888;DHT22;9576;47.792;9.628;2023-07-31T07:24:42;18.10;99.90
18888;DHT22;9576;47.792;9.628;2023-07-31T07:27:44;18.20;99.90
18888;DHT22;9576;47.792;9.628;2023-07-31T07:30:51;18.30;99.90
18888;DHT22;9576;47.792;9.628;2023-07-31T07:33:54;18.40;99.90
18888;DHT22;9576;47.792;9.628;2023-07-31T07:36:57;18.50;99.90
18888;DHT22;9576;47.792;9.628;2023-07-31T07:39:59;18.30;99.90
18888;DHT22;9576;47.792;9.628;2023-07-31T07:43:01;18.50;99.90
18888;DHT22;9576;47.792;9.628;2023-07-31T07:46:03;18.60;99.90
18888;DHT22;9576;47.792;9.628;2023-07-31T07:49:06;18.60;99.90
18888;DHT22;9576;47.792;9.628;2023-07-31T07:52:08;18.60;99.90
18888;DHT22;9576;47.792;9.628;2023-07-31T07:55:10;18.60;99.90
18888;DHT22;9576;47.792;9.628;2023-07-31T07:58:12;18.70;99.90
18888;DHT22;9576;47.792;9.628;2023-07-31T08:01:14;18.60;99.90
18888;DHT22;9576;47.792;9.628;2023-07-31T08:04:18;18.70;99.90
18888;DHT22;9576;47.792;9.628;2023-07-31T08:07:19;18.80;99.90
18888;DHT22;9576;47.792;9.628;2023-07-31T08:10:21;18.90;99.90
18888;DHT22;9576;47.792;9.628;2023-07-31T08:13:23;18.90;99.90
18888;DHT22;9576;47.792;9.628;2023-07-31T08:16:25;19.10;99.90
18888;DHT22;9576;47.792;9.628;2023-07-31T08:19:29;19.20;99.90
18888;DHT22;9576;47.792;9.628;2023-07-31T08:22:31;19.20;99.90
18888;DHT22;9576;47.792;9.628;2023-07-31T08:25:34;19.50;99.90
18888;DHT22;9576;47.792;9.628;2023-07-31T08:28:36;19.80;99.90
18888;DHT22;9576;47.792;9.628;2023-07-31T08:31:40;20.00;99.90
18888;DHT22;9576;47.792;9.628;2023-07-31T08:34:44;20.10;99.90
18888;DHT22;9576;47.792;9.628;2023-07-31T08:37:46;19.80;99.90
18888;DHT22;9576;47.792;9.628;2023-07-31T08:40:48;19.60;99.90
18888;DHT22;9576;47.792;9.628;2023-07-31T08:43:50;19.40;99.90
18888;DHT22;9576;47.792;9.628;2023-07-31T08:46:52;19.30;99.90
18888;DHT22;9576;47.792;9.628;2023-07-31T08:49:57;19.30;99.90
18888;DHT22;9576;47.792;9.628;2023-07-31T08:52:59;19.30;99.90
18888;DHT22;9576;47.792;9.628;2023-07-31T08:56:02;19.40;99.90
18888;DHT22;9576;47.792;9.628;2023-07-31T08:59:05;19.70;99.90
18888;DHT22;9576;47.792;9.628;2023-07-31T09:02:08;19.90;99.90
18888;DHT22;9576;47.792;9.628;2023-07-31T09:05:12;20.00;99.90
18888;DHT22;9576;47.792;9.628;2023-07-31T09:08:19;20.10;99.90
18888;DHT22;9576;47.792;9.628;2023-07-31T09:11:22;20.10;99.90
18888;DHT22;9576;47.792;9.628;2023-07-31T09:14:25;20.10;99.90
18888;DHT22;9576;47.792;9.628;2023-07-31T09:17:31;20.00;99.90
18888;DHT22;9576;47.792;9.628;2023-07-31T09:20:35;20.10;99.90
18888;DHT22;9576;47.792;9.628;2023-07-31T09:23:42;20.20;99.90
18888;DHT22;9576;47.792;9.628;2023-07-31T09:26:44;20.30;99.90
18888;DHT22;9576;47.792;9.628;2023-07-31T09:29:58;20.20;99.90
18888;DHT22;9576;47.792;9.628;2023-07-31T09:33:02;20.30;99.90
18888;DHT22;9576;47.792;9.628;2023-07-31T09:36:06;20.30;99.90
18888;DHT22;9576;47.792;9.628;2023-07-31T09:39:09;20.40;99.90
18888;DHT22;9576;47.792;9.628;2023-07-31T09:42:11;20.60;99.90
18888;DHT22;9576;47.792;9.628;2023-07-31T09:45:14;20.80;99.90
18888;DHT22;9576;47.792;9.628;2023-07-31T09:48:17;20.90;99.90
18888;DHT22;9576;47.792;9.628;2023-07-31T09:51:27;21.10;99.90
18888;DHT22;9576;47.792;9.628;2023-07-31T09:54:29;21.20;99.90
18888;DHT22;9576;47.792;9.628;2023-07-31T09:57:31;21.30;99.90
18888;DHT22;9576;47.792;9.628;2023-07-31T10:00:35;21.40;99.90
18888;DHT22;9576;47.792;9.628;2023-07-31T10:03:38;21.50;99.90
18888;DHT22;9576;47.792;9.628;2023-07-31T10:06:43;21.40;99.90
18888;DHT22;9576;47.792;9.628;2023-07-31T10:09:48;21.50;99.90
18888;DHT22;9576;47.792;9.628;2023-07-31T10:12:52;21.50;99.90
18888;DHT22;9576;47.792;9.628;2023-07-31T10:15:54;21.50;99.90
18888;DHT22;9576;47.792;9.628;2023-07-31T10:18:59;21.50;99.90
18888;DHT22;9576;47.792;9.628;2023-07-31T10:22:04;21.50;99.90
18888;DHT22;9576;47.792;9.628;2023-07-31T10:25:08;21.40;99.90
18888;DHT22;9576;47.792;9.628;2023-07-31T10:28:10;21.30;99.90
18888;DHT22;9576;47.792;9.628;2023-07-31T10:31:13;21.00;99.90
18888;DHT22;9576;47.792;9.628;2023-07-31T10:34:15;21.00;99.90
18888;DHT22;9576;47.792;9.628;2023-07-31T10:37:27;21.10;99.90
18888;DHT22;9576;47.792;9.628;2023-07-31T10:40:29;21.60;99.90
18888;DHT22;9576;47.792;9.628;2023-07-31T10:43:33;21.90;99.90
18888;DHT22;9576;47.792;9.628;2023-07-31T10:46:34;22.10;99.90
18888;DHT22;9576;47.792;9.628;2023-07-31T10:49:39;22.50;99.90
18888;DHT22;9576;47.792;9.628;2023-07-31T10:52:45;22.30;99.90
18888;DHT22;9576;47.792;9.628;2023-07-31T10:55:49;22.40;99.90
18888;DHT22;9576;47.792;9.628;2023-07-31T10:59:00;22.40;99.90
18888;DHT22;9576;47.792;9.628;2023-07-31T11:02:03;22.60;99.90
18888;DHT22;9576;47.792;9.628;2023-07-31T11:05:08;22.90;99.90
18888;DHT22;9576;47.792;9.628;2023-07-31T11:08:13;23.10;99.90
18888;DHT22;9576;47.792;9.628;2023-07-31T11:11:15;23.10;99.90
18888;DHT22;9576;47.792;9.628;2023-07-31T11:14:17;22.90;99.90
18888;DHT22;9576;47.792;9.628;2023-07-31T11:17:19;23.10;99.90
18888;DHT22;9576;47.792;9.628;2023-07-31T11:20:21;23.30;99.90
18888;DHT22;9576;47.792;9.628;2023-07-31T11:23:24;23.50;99.90
18888;DHT22;9576;47.792;9.628;2023-07-31T11:26:27;23.60;99.90
18888;DHT22;9576;47.792;9.628;2023-07-31T11:29:31;23.50;99.90
18888;DHT22;9576;47.792;9.628;2023-07-31T11:32:33;23.60;99.90
18888;DHT22;9576;47.792;9.628;2023-07-31T11:35:35;23.50;99.90
18888;DHT22;9576;47.792;9.628;2023-07-31T11:38:39;23.50;99.90
18888;DHT22;9576;47.792;9.628;2023-07-31T11:41:41;23.40;99.90
18888;DHT22;9576;47.792;9.628;2023-07-31T11:44:43;23.20;99.90
18888;DHT22;9576;47.792;9.628;2023-07-31T11:47:48;23.30;99.90
18888;DHT22;9576;47.792;9.628;2023-07-31T11:50:51;23.30;99.90
18888;DHT22;9576;47.792;9.628;2023-07-31T11:53:57;23.30;99.90
18888;DHT22;9576;47.792;9.628;2023-07-31T11:57:00;23.30;99.90
18888;DHT22;9576;47.792;9.628;2023-07-31T12:00:02;23.60;99.90
18888;DHT22;9576;47.792;9.628;2023-07-31T12:03:05;24.20;99.90
18888;DHT22;9576;47.792;9.628;2023-07-31T12:06:07;24.80;99.90
18888;DHT22;9576;47.792;9.628;2023-07-31T12:09:11;24.90;99.90
18888;DHT22;9576;47.792;9.628;2023-07-31T12:12:20;24.90;99.90
18888;DHT22;9576;47.792;9.628;2023-07-31T12:15:22;25.10;99.90
18888;DHT22;9576;47.792;9.628;2023-07-31T12:18:33;25.20;99.90
18888;DHT22;9576;47.792;9.628;2023-07-31T12:21:35;25.30;99.90
18888;DHT22;9576;47.792;9.628;2023-07-31T12:24:39;24.80;99.90
18888;DHT22;9576;47.792;9.628;2023-07-31T12:27:44;24.40;99.90
18888;DHT22;9576;47.792;9.628;2023-07-31T12:30:46;24.10;99.90
18888;DHT22;9576;47.792;9.628;2023-07-31T12:33:49;24.00;99.90
18888;DHT22;9576;47.792;9.628;2023-07-31T12:36:53;24.10;99.90
18888;DHT22;9576;47.792;9.628;2023-07-31T12:39:56;24.50;99.90
18888;DHT22;9576;47.792;9.628;2023-07-31T12:43:03;24.90;99.90
18888;DHT22;9576;47.792;9.628;2023-07-31T12:46:06;25.50;99.90
18888;DHT22;9576;47.792;9.628;2023-07-31T12:49:09;25.80;99.90
18888;DHT22;9576;47.792;9.628;2023-07-31T12:52:11;26.10;99.90
18888;DHT22;9576;47.792;9.628;2023-07-31T12:55:14;25.80;99.90
18888;DHT22;9576;47.792;9.628;2023-07-31T12:58:16;25.90;99.90
18888;DHT22;9576;47.792;9.628;2023-07-31T13:01:18;26.40;99.90
18888;DHT22;9576;47.792;9.628;2023-07-31T13:04:20;26.10;99.90
18888;DHT22;9576;47.792;9.628;2023-07-31T13:07:22;25.80;99.90
18888;DHT22;9576;47.792;9.628;2023-07-31T13:10:27;25.40;99.90
18888;DHT22;9576;47.792;9.628;2023-07-31T13:13:30;25.20;99.90
18888;DHT22;9576;47.792;9.628;2023-07-31T13:16:32;25.70;99.90
18888;DHT22;9576;47.792;9.628;2023-07-31T13:19:34;26.30;99.90
18888;DHT22;9576;47.792;9.628;2023-07-31T13:22:36;27.10;99.90
18888;DHT22;9576;47.792;9.628;2023-07-31T13:25:39;27.90;99.90
18888;DHT22;9576;47.792;9.628;2023-07-31T13:28:41;27.70;99.90
18888;DHT22;9576;47.792;9.628;2023-07-31T13:31:43;27.30;99.90
18888;DHT22;9576;47.792;9.628;2023-07-31T13:34:45;26.80;99.90
18888;DHT22;9576;47.792;9.628;2023-07-31T13:37:47;26.30;99.90
18888;DHT22;9576;47.792;9.628;2023-07-31T13:40:50;25.60;99.90
18888;DHT22;9576;47.792;9.628;2023-07-31T13:43:52;25.20;99.90
18888;DHT22;9576;47.792;9.628;2023-07-31T13:46:54;24.90;99.90
18888;DHT22;9576;47.792;9.628;2023-07-31T13:49:56;24.70;99.90
18888;DHT22;9576;47.792;9.628;2023-07-31T13:52:58;24.50;99.90
18888;DHT22;9576;47.792;9.628;2023-07-31T13:56:01;24.50;99.90
18888;DHT22;9576;47.792;9.628;2023-07-31T13:59:03;24.30;99.90
18888;DHT22;9576;47.792;9.628;2023-07-31T14:02:05;24.20;99.90
18888;DHT22;9576;47.792;9.628;2023-07-31T14:05:08;24.20;99.90
18888;DHT22;9576;47.792;9.628;2023-07-31T14:08:10;24.30;99.90
18888;DHT22;9576;47.792;9.628;2023-07-31T14:11:13;24.30;99.90
18888;DHT22;9576;47.792;9.628;2023-07-31T14:14:16;24.50;99.90
18888;DHT22;9576;47.792;9.628;2023-07-31T14:17:18;24.40;99.90
18888;DHT22;9576;47.792;9.628;2023-07-31T14:20:20;24.40;99.90
18888;DHT22;9576;47.792;9.628;2023-07-31T14:23:22;24.40;99.90
18888;DHT22;9576;47.792;9.628;2023-07-31T14:26:25;24.30;99.90
18888;DHT22;9576;47.792;9.628;2023-07-31T14:29:27;24.30;99.90
18888;DHT22;9576;47.792;9.628;2023-07-31T14:32:29;24.40;99.90
18888;DHT22;9576;47.792;9.628;2023-07-31T14:35:31;24.50;99.90
18888;DHT22;9576;47.792;9.628;2023-07-31T14:38:33;24.60;99.90
18888;DHT22;9576;47.792;9.628;2023-07-31T14:41:36;24.80;99.90
18888;DHT22;9576;47.792;9.628;2023-07-31T14:44:38;25.00;99.90
18888;DHT22;9576;47.792;9.628;2023-07-31T14:47:40;25.20;99.90
18888;DHT22;9576;47.792;9.628;2023-07-31T14:50:42;25.40;99.90
18888;DHT22;9576;47.792;9.628;2023-07-31T14:53:44;25.60;99.90
18888;DHT22;9576;47.792;9.628;2023-07-31T14:56:48;25.90;99.90
18888;DHT22;9576;47.792;9.628;2023-07-31T14:59:50;26.00;99.90
18888;DHT22;9576;47.792;9.628;2023-07-31T15:02:52;26.10;99.90
18888;DHT22;9576;47.792;9.628;2023-07-31T15:05:54;25.90;99.90
18888;DHT22;9576;47.792;9.628;2023-07-31T15:08:56;25.80;99.90
18888;DHT22;9576;47.792;9.628;2023-07-31T15:11:59;25.70;99.90
18888;DHT22;9576;47.792;9.628;2023-07-31T15:15:01;26.00;99.90
18888;DHT22;9576;47.792;9.628;2023-07-31T15:18:03;26.80;99.90
18888;DHT22;9576;47.792;9.628;2023-07-31T15:21:05;27.30;99.90
18888;DHT22;9576;47.792;9.628;2023-07-31T15:24:09;27.50;99.90
18888;DHT22;9576;47.792;9.628;2023-07-31T15:27:12;27.50;99.90
18888;DHT22;9576;47.792;9.628;2023-07-31T15:30:14;27.20;99.90
18888;DHT22;9576;47.792;9.628;2023-07-31T15:33:16;27.40;99.90
18888;DHT22;9576;47.792;9.628;2023-07-31T15:36:18;27.30;99.90
18888;DHT22;9576;47.792;9.628;2023-07-31T15:39:20;27.10;99.90
18888;DHT22;9576;47.792;9.628;2023-07-31T15:42:23;26.80;99.90
18888;DHT22;9576;47.792;9.628;2023-07-31T15:45:25;26.40;99.90
18888;DHT22;9576;47.792;9.628;2023-07-31T15:48:27;26.20;99.90
18888;DHT22;9576;47.792;9.628;2023-07-31T15:51:29;26.00;99.90
18888;DHT22;9576;47.792;9.628;2023-07-31T15:54:31;25.90;99.90
18888;DHT22;9576;47.792;9.628;2023-07-31T15:57:34;25.60;99.90
18888;DHT22;9576;47.792;9.628;2023-07-31T16:00:36;25.20;99.90
18888;DHT22;9576;47.792;9.628;2023-07-31T16:03:39;24.80;99.90
18888;DHT22;9576;47.792;9.628;2023-07-31T16:06:41;24.50;99.90
18888;DHT22;9576;47.792;9.628;2023-07-31T16:09:42;24.30;99.90
18888;DHT22;9576;47.792;9.628;2023-07-31T16:12:46;24.30;99.90
18888;DHT22;9576;47.792;9.628;2023-07-31T16:15:48;24.30;99.90
18888;DHT22;9576;47.792;9.628;2023-07-31T16:18:50;24.40;99.90
18888;DHT22;9576;47.792;9.628;2023-07-31T16:21:52;24.60;99.90
18888;DHT22;9576;47.792;9.628;2023-07-31T16:24:54;25.00;99.90
18888;DHT22;9576;47.792;9.628;2023-07-31T16:27:57;25.20;99.90
18888;DHT22;9576;47.792;9.628;2023-07-31T16:30:59;25.40;99.90
18888;DHT22;9576;47.792;9.628;2023-07-31T16:34:01;25.40;99.90
18888;DHT22;9576;47.792;9.628;2023-07-31T16:37:03;25.40;99.90
18888;DHT22;9576;47.792;9.628;2023-07-31T16:40:06;25.30;99.90
18888;DHT22;9576;47.792;9.628;2023-07-31T16:43:10;25.30;99.90
18888;DHT22;9576;47.792;9.628;2023-07-31T16:46:12;25.10;99.90
18888;DHT22;9576;47.792;9.628;2023-07-31T16:49:13;25.40;99.90
18888;DHT22;9576;47.792;9.628;2023-07-31T16:52:15;26.00;99.90
18888;DHT22;9576;47.792;9.628;2023-07-31T16:55:17;26.50;99.90
18888;DHT22;9576;47.792;9.628;2023-07-31T16:58:21;26.50;99.90
18888;DHT22;9576;47.792;9.628;2023-07-31T17:01:23;26.90;99.90
18888;DHT22;9576;47.792;9.628;2023-07-31T17:04:31;26.80;99.90
18888;DHT22;9576;47.792;9.628;2023-07-31T17:07:33;26.40;99.90
18888;DHT22;9576;47.792;9.628;2023-07-31T17:10:35;26.00;99.90
18888;DHT22;9576;47.792;9.628;2023-07-31T17:13:38;25.70;99.90
18888;DHT22;9576;47.792;9.628;2023-07-31T17:16:40;25.60;99.90
18888;DHT22;9576;47.792;9.628;2023-07-31T17:19:42;25.70;99.90
18888;DHT22;9576;47.792;9.628;2023-07-31T17:22:44;25.70;99.90
18888;DHT22;9576;47.792;9.628;2023-07-31T17:25:46;26.20;99.90
18888;DHT22;9576;47.792;9.628;2023-07-31T17:28:49;26.80;99.90
18888;DHT22;9576;47.792;9.628;2023-07-31T17:31:51;26.90;99.90
18888;DHT22;9576;47.792;9.628;2023-07-31T17:34:53;26.30;99.90
18888;DHT22;9576;47.792;9.628;2023-07-31T17:37:55;25.90;99.90
18888;DHT22;9576;47.792;9.628;2023-07-31T17:40:57;25.70;99.90
18888;DHT22;9576;47.792;9.628;2023-07-31T17:44:00;25.30;99.90
18888;DHT22;9576;47.792;9.628;2023-07-31T17:47:02;24.90;99.90
18888;DHT22;9576;47.792;9.628;2023-07-31T17:50:05;24.40;99.90
18888;DHT22;9576;47.792;9.628;2023-07-31T17:53:07;24.20;99.90
18888;DHT22;9576;47.792;9.628;2023-07-31T17:56:09;23.90;99.90
18888;DHT22;9576;47.792;9.628;2023-07-31T17:59:12;23.70;99.90
18888;DHT22;9576;47.792;9.628;2023-07-31T18:02:14;23.50;99.90
18888;DHT22;9576;47.792;9.628;2023-07-31T18:05:16;23.30;99.90
18888;DHT22;9576;47.792;9.628;2023-07-31T18:08:18;23.10;99.90
18888;DHT22;9576;47.792;9.628;2023-07-31T18:11:20;22.90;99.90
18888;DHT22;9576;47.792;9.628;2023-07-31T18:14:24;22.80;99.90
18888;DHT22;9576;47.792;9.628;2023-07-31T18:17:28;22.70;99.90
18888;DHT22;9576;47.792;9.628;2023-07-31T18:20:30;22.50;99.90
18888;DHT22;9576;47.792;9.628;2023-07-31T18:23:32;22.40;99.90
18888;DHT22;9576;47.792;9.628;2023-07-31T18:26:34;22.30;99.90
18888;DHT22;9576;47.792;9.628;2023-07-31T18:29:38;22.20;99.90
18888;DHT22;9576;47.792;9.628;2023-07-31T18:32:40;22.10;99.90
18888;DHT22;9576;47.792;9.628;2023-07-31T18:35:42;22.00;99.90
18888;DHT22;9576;47.792;9.628;2023-07-31T18:38:44;22.00;99.90
18888;DHT22;9576;47.792;9.628;2023-07-31T18:41:46;21.90;99.90
18888;DHT22;9576;47.792;9.628;2023-07-31T18:44:49;21.80;99.90
18888;DHT22;9576;47.792;9.628;2023-07-31T18:47:51;21.70;99.90
18888;DHT22;9576;47.792;9.628;2023-07-31T18:50:53;21.60;99.90
18888;DHT22;9576;47.792;9.628;2023-07-31T18:53:55;21.50;99.90
18888;DHT22;9576;47.792;9.628;2023-07-31T18:56:57;21.50;99.90
18888;DHT22;9576;47.792;9.628;2023-07-31T19:00:00;21.30;99.90
18888;DHT22;9576;47.792;9.628;2023-07-31T19:03:02;21.30;99.90
18888;DHT22;9576;47.792;9.628;2023-07-31T19:06:04;21.20;99.90
18888;DHT22;9576;47.792;9.628;2023-07-31T19:09:06;21.20;99.90
18888;DHT22;9576;47.792;9.628;2023-07-31T19:12:08;21.10;99.90
18888;DHT22;9576;47.792;9.628;2023-07-31T19:15:11;21.10;99.90
18888;DHT22;9576;47.792;9.628;2023-07-31T19:18:13;21.10;99.90
18888;DHT22;9576;47.792;9.628;2023-07-31T19:21:15;21.10;99.90
18888;DHT22;9576;47.792;9.628;2023-07-31T19:24:17;21.00;99.90
18888;DHT22;9576;47.792;9.628;2023-07-31T19:27:20;21.00;99.90
18888;DHT22;9576;47.792;9.628;2023-07-31T19:30:24;21.00;99.90
18888;DHT22;9576;47.792;9.628;2023-07-31T19:33:26;20.80;99.90